Time;durP1;ratioP1;P1;durP2;ratioP2;P2;SDS_P1;SDS_P2;PMS_P1;PMS_P2;Temp;Humidity;BMP_temperature;BMP_pressure;BME280_temperature;BME280_humidity;BME280_pressure;Samples;Min_cycle;Max_cycle;Signal;HPM_P1;HPM_P2
2021/12/12 00:00:48;;;;;;;71.00;39.70;;;3.80;99.90;;;;;;5069904;28;20512;-64
2021/12/12 00:03:37;;;;;;;67.40;37.92;;;3.80;99.90;;;;;;5069932;28;20043;-64
2021/12/12 00:06:21;;;;;;;71.47;38.15;;;3.90;99.90;;;;;;5068678;28;20563;-64
2021/12/12 00:08:52;;;;;;;74.07;38.72;;;3.80;99.90;;;;;;5070361;28;20036;-62
2021/12/12 00:11:22;;;;;;;60.53;36.15;;;3.80;99.90;;;;;;5076465;28;20039;-63
2021/12/12 00:13:52;;;;;;;71.13;38.92;;;3.90;99.90;;;;;;5077902;28;20115;-63
2021/12/12 00:16:17;;;;;;;70.18;36.95;;;3.90;99.90;;;;;;5069924;28;20089;-63
2021/12/12 00:18:43;;;;;;;70.10;38.40;;;3.90;99.90;;;;;;5068758;28;20040;-63
2021/12/12 00:21:11;;;;;;;70.23;35.60;;;3.90;99.90;;;;;;5068456;28;20068;-63
2021/12/12 00:23:37;;;;;;;68.53;37.17;;;3.90;99.90;;;;;;5069632;28;20044;-63
2021/12/12 00:26:05;;;;;;;75.57;40.90;;;3.90;99.90;;;;;;5068034;28;20105;-63
2021/12/12 00:28:32;;;;;;;67.35;37.33;;;3.90;99.90;;;;;;5068071;28;20044;-63
2021/12/12 00:31:08;;;;;;;76.05;38.97;;;3.90;99.90;;;;;;5071413;28;20404;-63
2021/12/12 00:33:37;;;;;;;76.65;38.22;;;3.90;99.90;;;;;;5057307;28;20024;-63
2021/12/12 00:36:04;;;;;;;73.88;38.00;;;3.90;99.90;;;;;;5083746;28;20113;-63
2021/12/12 00:38:33;;;;;;;65.88;35.88;;;4.00;99.90;;;;;;5064852;28;20170;-63
2021/12/12 00:41:05;;;;;;;66.53;34.72;;;4.00;99.90;;;;;;5056475;28;20037;-63
2021/12/12 00:43:46;;;;;;;72.78;39.15;;;4.00;99.90;;;;;;5073112;28;20121;-63
2021/12/12 00:46:12;;;;;;;80.90;38.80;;;4.00;99.90;;;;;;5068385;28;20071;-62
2021/12/12 00:48:41;;;;;;;68.97;36.42;;;4.00;99.90;;;;;;5069169;28;20515;-63
2021/12/12 00:51:11;;;;;;;74.70;34.60;;;4.00;99.90;;;;;;5068464;28;20520;-63
2021/12/12 00:53:39;;;;;;;73.93;35.55;;;4.00;99.90;;;;;;5068764;28;20044;-63
2021/12/12 00:56:06;;;;;;;69.95;35.72;;;4.00;99.90;;;;;;5069700;28;20025;-63
2021/12/12 00:58:32;;;;;;;63.75;34.30;;;4.10;99.90;;;;;;5055893;28;20096;-62
2021/12/12 01:01:05;;;;;;;68.63;34.20;;;4.10;99.90;;;;;;5068056;28;20450;-63
2021/12/12 01:03:38;;;;;;;66.03;33.90;;;4.10;99.90;;;;;;5069311;28;20090;-63
2021/12/12 01:06:07;;;;;;;66.47;34.08;;;4.10;99.90;;;;;;5067896;28;20573;-63
2021/12/12 01:08:34;;;;;;;63.83;33.63;;;4.10;99.90;;;;;;5058353;28;20525;-63
2021/12/12 01:11:10;;;;;;;67.20;34.38;;;4.10;99.90;;;;;;5062308;28;20064;-63
2021/12/12 01:13:37;;;;;;;55.13;33.53;;;4.10;99.90;;;;;;5057658;28;20188;-63
2021/12/12 01:16:09;;;;;;;56.80;32.20;;;4.10;99.90;;;;;;5046244;28;20053;-63
2021/12/12 01:18:40;;;;;;;67.97;33.30;;;4.10;99.90;;;;;;5064186;28;20036;-63
2021/12/12 01:21:19;;;;;;;64.63;31.38;;;4.10;99.90;;;;;;5064468;28;20036;-63
2021/12/12 01:23:58;;;;;;;52.92;31.70;;;4.10;99.90;;;;;;5068395;28;20048;-63
2021/12/12 01:26:26;;;;;;;61.45;31.42;;;4.20;99.90;;;;;;5065360;28;20071;-63
2021/12/12 01:28:54;;;;;;;70.45;31.50;;;4.20;99.90;;;;;;5051264;28;20044;-63
2021/12/12 01:31:25;;;;;;;60.95;31.20;;;4.20;99.90;;;;;;5077695;28;20040;-63
2021/12/12 01:33:59;;;;;;;66.00;31.95;;;4.20;99.90;;;;;;5059608;28;20485;-63
2021/12/12 01:36:42;;;;;;;55.42;30.98;;;4.20;99.90;;;;;;5068786;28;20068;-63
2021/12/12 01:39:10;;;;;;;55.03;30.88;;;4.20;99.90;;;;;;5078378;28;20508;-62
2021/12/12 01:41:44;;;;;;;63.25;27.42;;;4.20;99.90;;;;;;5068918;28;20439;-63
2021/12/12 01:44:19;;;;;;;54.58;27.88;;;4.20;99.90;;;;;;5077740;28;20047;-63
2021/12/12 01:46:56;;;;;;;53.45;27.25;;;4.20;99.90;;;;;;5072415;28;20090;-63
2021/12/12 01:49:23;;;;;;;;;;;4.20;99.90;;;;;;5076434;28;21097;-62
2021/12/12 01:51:50;;;;;;;54.38;27.10;;;4.20;99.90;;;;;;5071879;28;20338;-62
2021/12/12 01:54:21;;;;;;;53.10;29.45;;;4.20;99.90;;;;;;5072248;28;20094;-62
2021/12/12 01:56:54;;;;;;;53.72;28.60;;;4.30;99.90;;;;;;5072630;28;20040;-63
2021/12/12 01:59:23;;;;;;;46.90;27.15;;;4.30;99.90;;;;;;5072477;28;20409;-63
2021/12/12 02:02:08;;;;;;;50.10;26.00;;;4.30;99.90;;;;;;5072548;28;20040;-62
2021/12/12 02:04:39;;;;;;;55.03;26.73;;;4.30;99.90;;;;;;5070596;28;20098;-63
2021/12/12 02:07:07;;;;;;;47.50;24.50;;;4.30;99.90;;;;;;5071147;28;20089;-62
2021/12/12 02:09:33;;;;;;;49.22;25.67;;;4.30;99.90;;;;;;5072493;28;20076;-62
2021/12/12 02:12:00;;;;;;;47.28;26.35;;;4.30;99.90;;;;;;5070916;28;20485;-62
2021/12/12 02:14:29;;;;;;;40.03;25.05;;;4.30;99.90;;;;;;5070721;28;20527;-62
2021/12/12 02:17:11;;;;;;;55.15;27.60;;;4.30;99.90;;;;;;5054048;28;20041;-62
2021/12/12 02:20:04;;;;;;;41.92;23.88;;;4.30;99.90;;;;;;5070985;28;20047;-62
2021/12/12 02:36:05;;;;;;;46.88;22.83;;;4.30;99.90;;;;;;5071821;28;20488;-63
2021/12/12 02:38:33;;;;;;;39.05;21.80;;;4.30;99.90;;;;;;5070475;28;20562;-63
2021/12/12 02:41:05;;;;;;;44.20;22.70;;;4.30;99.90;;;;;;5071684;28;20051;-63
2021/12/12 02:43:34;;;;;;;44.03;21.63;;;4.40;99.90;;;;;;5083673;28;20036;-63
2021/12/12 02:46:00;;;;;;;37.50;22.35;;;4.30;99.90;;;;;;5089577;28;20036;-63
2021/12/12 02:48:32;;;;;;;46.10;23.80;;;4.40;99.90;;;;;;5090600;28;20051;-63
2021/12/12 02:51:02;;;;;;;45.10;21.17;;;4.40;99.90;;;;;;5075772;28;20076;-63
2021/12/12 02:53:40;;;;;;;38.28;23.05;;;4.40;99.90;;;;;;5083066;28;20059;-63
2021/12/12 02:56:32;;;;;;;42.08;22.35;;;4.40;99.90;;;;;;5071578;28;20123;-63
2021/12/12 02:58:59;;;;;;;39.58;21.92;;;4.40;99.90;;;;;;5058445;28;20052;-63
2021/12/12 03:01:33;;;;;;;46.95;23.25;;;4.40;99.90;;;;;;5071315;28;20041;-63
2021/12/12 03:03:59;;;;;;;38.60;21.80;;;4.40;99.90;;;;;;5070954;28;20463;-63
2021/12/12 03:06:32;;;;;;;38.00;21.88;;;4.40;99.90;;;;;;5071075;28;20067;-63
2021/12/12 03:09:06;;;;;;;46.58;21.42;;;4.40;99.90;;;;;;5070776;28;20050;-63
2021/12/12 03:11:32;;;;;;;46.33;21.60;;;4.40;99.90;;;;;;5049716;28;20064;-63
2021/12/12 03:13:58;;;;;;;44.60;21.13;;;4.40;99.90;;;;;;5049393;28;20037;-63
2021/12/12 03:16:24;;;;;;;38.58;20.92;;;4.40;99.90;;;;;;5050749;28;20268;-63
2021/12/12 03:18:50;;;;;;;31.63;19.05;;;4.40;99.90;;;;;;5048608;28;20096;-63
2021/12/12 03:21:28;;;;;;;43.90;20.73;;;4.40;99.90;;;;;;5050413;28;20497;-63
2021/12/12 03:23:56;;;;;;;33.95;20.05;;;4.40;99.90;;;;;;5056624;28;20067;-63
2021/12/12 03:26:22;;;;;;;40.10;20.45;;;4.50;99.90;;;;;;5072034;28;20089;-63
2021/12/12 03:28:56;;;;;;;42.08;20.52;;;4.50;99.90;;;;;;5070358;28;20562;-62
2021/12/12 03:31:32;;;;;;;39.70;21.70;;;4.50;99.90;;;;;;5072209;28;20045;-63
2021/12/12 03:34:00;;;;;;;38.50;19.67;;;4.50;99.90;;;;;;5090232;28;20040;-62
2021/12/12 03:36:27;;;;;;;36.45;19.60;;;4.50;99.90;;;;;;5089362;28;20036;-63
2021/12/12 03:38:57;;;;;;;43.00;19.50;;;4.50;99.90;;;;;;5087003;28;20048;-62
2021/12/12 03:41:28;;;;;;;47.42;21.10;;;4.50;99.90;;;;;;5088936;28;20515;-63
2021/12/12 03:43:57;;;;;;;36.95;18.40;;;4.50;99.90;;;;;;5080124;28;20036;-63
2021/12/12 03:46:23;;;;;;;41.03;19.92;;;4.50;99.90;;;;;;5071323;28;20523;-62
2021/12/12 03:48:49;;;;;;;34.50;19.80;;;4.50;99.90;;;;;;5071445;28;20041;-62
2021/12/12 03:51:17;;;;;;;41.97;18.38;;;4.50;99.90;;;;;;5072433;28;20042;-62
2021/12/12 03:53:44;;;;;;;42.53;17.63;;;4.50;99.90;;;;;;5089927;28;20082;-63
2021/12/12 03:56:11;;;;;;;38.58;18.58;;;4.50;99.90;;;;;;5090177;28;20072;-63
2021/12/12 03:58:39;;;;;;;34.33;19.30;;;4.50;99.90;;;;;;5087092;28;20516;-62
2021/12/12 04:01:12;;;;;;;39.00;18.33;;;4.50;99.90;;;;;;5089647;28;20401;-63
2021/12/12 04:03:39;;;;;;;41.17;19.35;;;4.50;99.90;;;;;;5090419;28;20408;-62
2021/12/12 04:06:09;;;;;;;43.13;19.10;;;4.50;99.90;;;;;;5090221;28;20039;-62
2021/12/12 04:08:40;;;;;;;40.63;20.83;;;4.50;99.90;;;;;;5085872;28;20558;-63
2021/12/12 04:11:13;;;;;;;36.10;18.05;;;4.50;99.90;;;;;;5090458;28;20057;-63
2021/12/12 04:13:41;;;;;;;41.95;19.30;;;4.60;99.90;;;;;;5083397;28;20040;-63
2021/12/12 04:16:10;;;;;;;39.42;18.25;;;4.60;99.90;;;;;;5070151;28;20051;-62
2021/12/12 04:18:36;;;;;;;38.60;18.67;;;4.60;99.90;;;;;;5071444;28;20039;-62
2021/12/12 04:21:02;;;;;;;41.22;20.55;;;4.60;99.90;;;;;;5071108;28;20120;-63
2021/12/12 04:23:28;;;;;;;41.22;18.88;;;4.60;99.90;;;;;;5088611;28;20464;-63
2021/12/12 04:26:06;;;;;;;45.27;18.53;;;4.60;99.90;;;;;;5088552;28;20135;-62
2021/12/12 04:28:32;;;;;;;30.17;18.52;;;4.60;99.90;;;;;;5089924;28;20082;-62
2021/12/12 04:30:58;;;;;;;36.00;17.30;;;4.60;99.90;;;;;;5087111;28;20063;-63
2021/12/12 04:33:24;;;;;;;36.47;17.23;;;4.60;99.90;;;;;;5089714;28;20642;-62
2021/12/12 04:35:50;;;;;;;30.88;17.35;;;4.60;99.90;;;;;;5073644;28;20086;-62
2021/12/12 04:38:15;;;;;;;37.93;18.07;;;4.60;99.90;;;;;;5069870;28;20032;-63
2021/12/12 04:40:41;;;;;;;38.93;18.33;;;4.70;99.90;;;;;;5070641;28;20538;-63
2021/12/12 04:43:07;;;;;;;29.80;16.27;;;4.60;99.90;;;;;;5078877;28;20032;-63
2021/12/12 04:46:03;;;;;;;34.77;17.53;;;4.60;99.90;;;;;;5088254;28;20083;-63
2021/12/12 04:51:41;;;;;;;35.63;17.13;;;4.70;99.90;;;;;;5063374;28;20507;-62
2021/12/12 04:54:28;;;;;;;29.38;15.40;;;4.70;99.90;;;;;;5075697;28;20150;-63
2021/12/12 04:56:54;;;;;;;25.77;15.27;;;4.70;99.90;;;;;;5057970;28;20494;-63
2021/12/12 04:59:25;;;;;;;24.25;15.32;;;4.70;99.90;;;;;;5069341;28;20119;-63
2021/12/12 05:02:06;;;;;;;29.02;15.43;;;4.70;99.90;;;;;;5069839;28;20078;-63
2021/12/12 05:04:56;;;;;;;28.83;15.52;;;4.70;99.90;;;;;;5069381;28;20408;-63
2021/12/12 05:07:41;;;;;;;24.05;14.32;;;4.70;99.90;;;;;;5070687;28;20089;-63
2021/12/12 05:10:15;;;;;;;26.88;15.48;;;4.80;99.90;;;;;;5071883;28;20072;-63
2021/12/12 05:12:45;;;;;;;30.67;15.43;;;4.80;99.90;;;;;;5073527;28;20037;-63
2021/12/12 05:15:18;;;;;;;36.33;14.52;;;4.80;99.90;;;;;;5073130;28;20044;-63
2021/12/12 05:17:49;;;;;;;27.65;14.32;;;4.80;99.90;;;;;;5073456;28;20039;-62
2021/12/12 05:20:29;;;;;;;27.83;13.60;;;4.80;99.90;;;;;;5074946;28;20516;-63
2021/12/12 05:22:56;;;;;;;22.35;14.40;;;4.80;99.90;;;;;;5083327;28;20059;-63
2021/12/12 05:25:26;;;;;;;22.65;12.40;;;4.80;99.90;;;;;;5088623;28;20377;-62
2021/12/12 05:27:55;;;;;;;21.10;13.60;;;4.90;99.90;;;;;;5074597;28;20044;-63
2021/12/12 05:30:28;;;;;;;23.42;13.35;;;4.90;99.90;;;;;;5077791;28;20127;-62
2021/12/12 05:32:54;;;;;;;20.92;10.73;;;4.90;99.90;;;;;;5089307;28;20037;-62
2021/12/12 05:35:23;;;;;;;22.02;10.88;;;4.90;99.90;;;;;;5072835;28;20603;-62
2021/12/12 05:37:52;;;;;;;15.68;11.38;;;4.90;99.90;;;;;;5073359;28;20044;-62
2021/12/12 05:40:20;;;;;;;16.35;10.32;;;5.00;99.90;;;;;;5074165;28;20086;-63
2021/12/12 05:42:46;;;;;;;15.73;10.50;;;5.00;99.90;;;;;;5074002;28;20115;-63
2021/12/12 05:45:14;;;;;;;21.13;10.55;;;5.00;99.90;;;;;;5086253;28;20539;-63
2021/12/12 05:47:40;;;;;;;13.23;8.85;;;5.00;99.90;;;;;;5073594;28;20044;-63
2021/12/12 05:50:09;;;;;;;15.83;10.40;;;5.00;99.90;;;;;;5073789;28;20050;-63
2021/12/12 05:52:35;;;;;;;10.32;8.77;;;5.00;99.90;;;;;;5072613;28;20741;-63
2021/12/12 05:55:05;;;;;;;16.42;8.95;;;5.00;99.90;;;;;;5080845;28;20075;-63
2021/12/12 05:57:31;;;;;;;15.32;9.10;;;5.10;99.90;;;;;;5092623;28;20119;-63
2021/12/12 05:59:57;;;;;;;13.13;8.60;;;5.00;99.90;;;;;;5092477;28;20132;-63
2021/12/12 06:02:25;;;;;;;10.38;8.05;;;5.00;99.90;;;;;;5090770;28;20292;-62
2021/12/12 06:04:53;;;;;;;16.50;8.50;;;5.00;99.90;;;;;;5090961;28;20040;-62
2021/12/12 06:07:21;;;;;;;13.20;8.18;;;5.00;99.90;;;;;;5057471;28;20424;-62
2021/12/12 06:09:48;;;;;;;12.27;8.70;;;5.10;99.90;;;;;;5072347;28;20079;-62
2021/12/12 06:12:15;;;;;;;10.77;8.88;;;5.00;99.90;;;;;;5072961;28;20032;-62
2021/12/12 06:14:41;;;;;;;12.23;8.73;;;5.00;99.90;;;;;;5072428;28;20040;-63
2021/12/12 06:17:10;;;;;;;10.57;8.30;;;5.00;99.90;;;;;;5071878;28;20084;-62
2021/12/12 06:19:37;;;;;;;19.10;9.13;;;5.00;99.90;;;;;;5090726;28;20048;-62
2021/12/12 06:22:05;;;;;;;13.25;8.68;;;5.00;99.90;;;;;;5080637;28;20428;-64
2021/12/12 06:24:32;;;;;;;12.70;8.30;;;5.10;99.90;;;;;;5071441;28;20090;-63
2021/12/12 06:27:05;;;;;;;13.98;9.55;;;5.00;99.90;;;;;;5073316;28;20040;-62
2021/12/12 06:29:31;;;;;;;11.57;8.60;;;5.10;99.90;;;;;;5070616;28;20037;-63
2021/12/12 06:31:58;;;;;;;14.32;9.50;;;5.10;99.90;;;;;;5070891;28;20118;-63
2021/12/12 06:34:24;;;;;;;16.80;9.35;;;5.00;99.90;;;;;;5071274;28;20040;-62
2021/12/12 06:36:51;;;;;;;11.77;8.68;;;5.00;99.90;;;;;;5072124;28;20040;-63
2021/12/12 06:39:17;;;;;;;11.32;7.95;;;5.10;99.90;;;;;;5071287;28;20465;-62
2021/12/12 06:41:43;;;;;;;11.05;8.70;;;5.10;99.90;;;;;;5070598;28;20127;-63
2021/12/12 06:44:10;;;;;;;;;;;5.10;99.90;;;;;;5072878;28;20044;-63
2021/12/12 06:46:38;;;;;;;11.32;7.75;;;5.10;99.90;;;;;;5071903;28;19916;-63
2021/12/12 06:49:06;;;;;;;13.75;9.93;;;5.10;99.90;;;;;;5075096;28;20037;-63
2021/12/12 06:51:35;;;;;;;11.88;9.43;;;5.10;99.90;;;;;;5066874;28;20040;-63
2021/12/12 06:54:01;;;;;;;14.30;10.45;;;5.10;99.90;;;;;;5069703;28;20174;-63
2021/12/12 06:56:28;;;;;;;13.15;9.65;;;5.10;99.90;;;;;;5082444;28;20070;-63
2021/12/12 06:58:57;;;;;;;14.95;8.98;;;5.20;99.90;;;;;;5070491;28;20040;-63
2021/12/12 07:01:25;;;;;;;13.35;10.40;;;5.20;99.90;;;;;;5071363;28;20055;-62
2021/12/12 07:03:52;;;;;;;11.93;9.98;;;5.20;99.90;;;;;;5071443;28;20040;-63
2021/12/12 07:06:19;;;;;;;;;;;5.20;99.90;;;;;;5071709;28;20382;-62
2021/12/12 07:08:45;;;;;;;14.57;9.70;;;5.20;99.90;;;;;;5071406;28;20266;-63
2021/12/12 07:11:13;;;;;;;;;;;5.30;99.90;;;;;;5071682;28;20042;-63
2021/12/12 07:13:39;;;;;;;16.80;11.65;;;5.20;99.90;;;;;;5070916;28;19916;-63
2021/12/12 07:16:05;;;;;;;16.73;11.43;;;5.20;99.90;;;;;;5071041;28;20044;-63
2021/12/12 07:18:33;;;;;;;15.70;11.60;;;5.30;99.90;;;;;;5069775;28;20044;-62
2021/12/12 07:21:03;;;;;;;18.25;11.95;;;5.30;99.90;;;;;;5070607;28;20397;-63
2021/12/12 07:23:30;;;;;;;17.55;12.73;;;5.30;99.90;;;;;;5064714;28;20038;-63
2021/12/12 07:25:59;;;;;;;17.30;13.10;;;5.30;99.90;;;;;;5070669;28;20078;-63
2021/12/12 07:28:27;;;;;;;18.10;12.55;;;5.30;99.90;;;;;;5069559;28;20040;-63
2021/12/12 07:30:53;;;;;;;18.85;12.52;;;5.30;99.90;;;;;;5069525;28;20048;-63
2021/12/12 07:33:19;;;;;;;16.80;11.33;;;5.30;99.90;;;;;;5070796;28;20036;-63
2021/12/12 07:35:45;;;;;;;15.38;12.15;;;5.30;99.90;;;;;;5064558;28;20040;-64
2021/12/12 07:38:14;;;;;;;20.25;13.60;;;5.30;99.90;;;;;;5080237;28;20093;-63
2021/12/12 07:40:41;;;;;;;16.05;10.80;;;5.30;99.90;;;;;;5088776;28;20090;-63
2021/12/12 07:43:07;;;;;;;20.48;12.35;;;5.30;99.90;;;;;;5074253;28;20408;-63
2021/12/12 07:45:34;;;;;;;15.80;11.55;;;5.40;99.90;;;;;;5074637;28;20047;-62
2021/12/12 07:48:00;;;;;;;16.95;12.13;;;5.40;99.90;;;;;;5088634;28;20043;-63
2021/12/12 07:50:28;;;;;;;19.73;13.48;;;5.40;99.90;;;;;;5089146;28;20120;-63
2021/12/12 07:52:55;;;;;;;23.00;13.60;;;5.40;99.90;;;;;;5080645;28;20043;-62
2021/12/12 07:55:22;;;;;;;17.88;13.80;;;5.40;99.90;;;;;;5069154;28;20066;-63
2021/12/12 07:57:48;;;;;;;18.85;13.23;;;5.40;99.90;;;;;;5081884;28;20035;-65
2021/12/12 08:00:18;;;;;;;20.92;13.05;;;5.40;99.90;;;;;;5070814;28;20043;-62
2021/12/12 08:02:45;;;;;;;22.45;14.48;;;5.50;99.90;;;;;;5069795;28;20036;-63
2021/12/12 08:05:15;;;;;;;23.20;15.48;;;5.50;99.90;;;;;;5068942;28;20477;-62
2021/12/12 08:07:43;;;;;;;25.55;15.60;;;5.50;99.90;;;;;;5070437;28;20085;-63
2021/12/12 08:10:12;;;;;;;20.58;13.30;;;5.50;99.90;;;;;;5076642;28;20047;-63
2021/12/12 08:12:38;;;;;;;21.17;15.07;;;5.50;99.90;;;;;;5089857;28;20434;-63
2021/12/12 08:15:06;;;;;;;23.25;15.45;;;5.60;99.90;;;;;;5083177;28;20035;-62
2021/12/12 08:17:32;;;;;;;21.42;14.40;;;5.60;99.90;;;;;;5089482;28;20134;-64
2021/12/12 08:19:59;;;;;;;22.08;14.57;;;5.60;99.90;;;;;;5089617;28;20115;-63
2021/12/12 08:22:26;;;;;;;24.27;15.40;;;5.60;99.90;;;;;;5081868;28;20047;-64
2021/12/12 08:24:53;;;;;;;25.58;16.45;;;5.60;99.90;;;;;;5068541;28;20063;-64
2021/12/12 08:27:18;;;;;;;23.58;14.88;;;5.70;99.90;;;;;;5070260;28;20090;-64
2021/12/12 08:29:44;;;;;;;27.40;15.60;;;5.70;99.90;;;;;;5069814;28;20514;-63
2021/12/12 08:32:12;;;;;;;22.38;14.95;;;5.70;99.90;;;;;;5069082;28;20045;-63
2021/12/12 08:34:39;;;;;;;23.92;14.18;;;5.70;99.90;;;;;;5068811;28;20036;-64
2021/12/12 08:37:06;;;;;;;23.27;14.48;;;5.80;99.90;;;;;;5069322;28;20055;-63
2021/12/12 08:39:32;;;;;;;19.42;13.48;;;5.80;99.90;;;;;;5068999;28;20044;-64
2021/12/12 08:41:59;;;;;;;;;;;5.80;99.90;;;;;;5071413;28;20521;-63
2021/12/12 08:44:28;;;;;;;19.30;13.27;;;5.80;99.90;;;;;;5073507;28;19920;-64
2021/12/12 08:46:56;;;;;;;23.55;15.82;;;5.90;99.90;;;;;;5074046;28;20045;-64
2021/12/12 08:49:25;;;;;;;19.73;14.18;;;5.90;99.90;;;;;;5073925;28;20044;-63
2021/12/12 08:52:08;;;;;;;19.90;13.68;;;5.90;99.90;;;;;;5072243;28;20044;-63
2021/12/12 08:54:36;;;;;;;20.88;14.10;;;5.90;99.90;;;;;;5073736;28;20052;-63
2021/12/12 08:57:20;;;;;;;20.77;13.95;;;6.00;99.90;;;;;;5072530;28;20053;-63
2021/12/12 08:59:47;;;;;;;17.70;13.15;;;6.00;99.90;;;;;;5072463;28;20127;-63
2021/12/12 09:02:16;;;;;;;20.95;12.45;;;6.00;99.90;;;;;;5077830;28;20115;-64
2021/12/12 09:04:59;;;;;;;20.23;13.25;;;6.10;99.90;;;;;;5060332;28;20056;-63
2021/12/12 09:07:31;;;;;;;19.13;13.55;;;6.10;99.90;;;;;;5060324;28;20048;-63
2021/12/12 09:10:09;;;;;;;23.20;14.90;;;6.10;99.90;;;;;;5058512;28;20048;-63
2021/12/12 09:12:39;;;;;;;17.27;13.20;;;6.20;99.90;;;;;;5085177;28;20043;-63
2021/12/12 09:15:23;;;;;;;22.10;14.73;;;6.20;99.90;;;;;;5083493;28;20059;-63
2021/12/12 09:17:53;;;;;;;22.33;15.15;;;6.30;99.90;;;;;;5077777;28;20067;-63
2021/12/12 09:20:35;;;;;;;21.27;14.45;;;6.30;99.90;;;;;;5074544;28;20036;-63
2021/12/12 09:23:19;;;;;;;20.35;13.50;;;6.30;99.90;;;;;;5087036;28;20056;-63
2021/12/12 09:25:52;;;;;;;23.88;14.15;;;6.30;99.90;;;;;;5077990;28;20501;-63
2021/12/12 09:28:30;;;;;;;21.25;15.15;;;6.40;99.90;;;;;;5071477;28;20070;-63
2021/12/12 09:31:10;;;;;;;23.92;15.73;;;6.40;99.90;;;;;;5076626;28;20063;-61
2021/12/12 09:33:47;;;;;;;21.92;14.65;;;6.40;99.90;;;;;;5079102;28;20037;-61
2021/12/12 09:36:24;;;;;;;27.15;17.45;;;6.40;99.90;;;;;;5073718;28;20056;-59
2021/12/12 09:38:57;;;;;;;;;;;6.40;99.90;;;;;;5084715;28;20040;-61
2021/12/12 09:41:41;;;;;;;23.60;15.75;;;6.40;99.90;;;;;;5086510;28;19978;-62
2021/12/12 09:44:26;;;;;;;26.38;16.45;;;6.50;99.90;;;;;;5092887;28;20123;-62
2021/12/12 09:47:30;;;;;;;26.92;16.42;;;6.50;99.90;;;;;;5092777;28;20032;-63
2021/12/12 09:53:42;;;;;;;25.63;17.13;;;6.60;99.90;;;;;;5091541;28;20040;-62
2021/12/12 09:56:32;;;;;;;28.45;18.20;;;6.60;99.90;;;;;;5074538;28;20047;-62
2021/12/12 09:59:03;;;;;;;28.95;18.35;;;6.60;99.90;;;;;;5090426;28;20123;-65
2021/12/12 10:01:46;;;;;;;31.38;19.00;;;6.70;99.90;;;;;;5092810;28;20047;-65
2021/12/12 10:04:33;;;;;;;32.33;19.92;;;6.70;99.90;;;;;;5092878;28;20353;-65
2021/12/12 10:07:34;;;;;;;32.45;19.45;;;6.70;99.90;;;;;;5085326;28;20103;-65
2021/12/12 10:10:08;;;;;;;29.25;18.73;;;6.80;99.90;;;;;;5031669;28;20432;-65
2021/12/12 10:12:40;;;;;;;30.95;19.13;;;6.80;99.90;;;;;;5082252;28;20045;-65
2021/12/12 10:15:18;;;;;;;39.20;20.40;;;6.80;99.90;;;;;;5071098;28;20044;-65
2021/12/12 10:17:53;;;;;;;39.83;20.48;;;6.80;99.90;;;;;;5079865;28;20032;-66
2021/12/12 10:20:33;;;;;;;35.75;18.85;;;6.90;99.90;;;;;;5059098;28;20432;-64
2021/12/12 10:23:16;;;;;;;35.35;20.35;;;6.90;99.90;;;;;;5071773;28;20040;-65
2021/12/12 10:25:52;;;;;;;37.53;19.77;;;6.90;99.90;;;;;;5072001;28;20036;-66
2021/12/12 10:28:22;;;;;;;34.45;19.25;;;7.00;99.90;;;;;;5072043;28;20051;-65
2021/12/12 10:31:16;;;;;;;36.88;19.20;;;7.10;99.90;;;;;;5077826;28;20394;-65
2021/12/12 10:33:52;;;;;;;30.30;18.40;;;7.00;99.90;;;;;;5071537;28;20040;-65
2021/12/12 10:36:29;;;;;;;25.63;16.65;;;7.10;99.90;;;;;;5071791;28;20489;-65
2021/12/12 10:39:02;;;;;;;29.15;18.08;;;7.10;99.90;;;;;;5074060;28;20530;-65
2021/12/12 10:41:35;;;;;;;30.92;17.65;;;7.10;99.90;;;;;;5090549;28;20043;-65
2021/12/12 10:44:13;;;;;;;31.00;18.55;;;7.20;99.90;;;;;;5091837;28;20040;-65
2021/12/12 10:46:54;;;;;;;24.23;16.27;;;7.20;99.90;;;;;;5088988;28;20559;-65
2021/12/12 10:49:55;;;;;;;27.92;16.80;;;7.20;99.90;;;;;;5068557;28;20044;-65
2021/12/12 10:52:31;;;;;;;27.45;16.65;;;7.30;99.90;;;;;;5068764;28;20037;-65
2021/12/12 10:55:17;;;;;;;27.23;16.25;;;7.30;99.90;;;;;;5071031;28;20514;-65
2021/12/12 10:57:50;;;;;;;26.65;15.80;;;7.30;99.90;;;;;;5071009;28;20044;-65
2021/12/12 11:00:31;;;;;;;23.10;15.77;;;7.30;99.90;;;;;;5071296;28;20041;-65
2021/12/12 11:03:00;;;;;;;27.67;15.80;;;7.40;99.90;;;;;;5071180;28;20040;-65
2021/12/12 11:05:35;;;;;;;30.70;16.20;;;7.40;99.90;;;;;;5070765;28;20044;-65
2021/12/12 11:08:20;;;;;;;25.00;14.90;;;7.40;99.90;;;;;;5065936;28;20047;-65
2021/12/12 11:10:47;;;;;;;28.00;16.77;;;7.50;99.90;;;;;;5071092;28;20290;-65
2021/12/12 11:13:21;;;;;;;24.50;15.30;;;7.60;99.90;;;;;;5070607;28;20052;-65
2021/12/12 11:16:00;;;;;;;23.20;13.90;;;7.60;99.90;;;;;;5070907;28;20047;-65
2021/12/12 11:18:41;;;;;;;20.40;14.70;;;7.60;99.90;;;;;;5070481;28;20040;-65
2021/12/12 11:21:16;;;;;;;21.00;12.73;;;7.60;99.90;;;;;;5072068;28;20064;-65
2021/12/12 11:24:04;;;;;;;22.27;13.60;;;7.70;99.90;;;;;;5070628;28;20477;-65
2021/12/12 11:27:06;;;;;;;22.38;13.88;;;7.70;99.90;;;;;;5069662;28;20024;-65
2021/12/12 11:29:45;;;;;;;19.10;12.63;;;7.70;99.90;;;;;;5073626;28;20036;-65
2021/12/12 11:32:16;;;;;;;19.20;12.75;;;7.70;99.90;;;;;;5060233;28;20037;-65
2021/12/12 11:34:49;;;;;;;19.08;13.25;;;7.70;99.90;;;;;;5070633;28;20117;-65
2021/12/12 11:37:33;;;;;;;22.33;14.70;;;7.70;99.90;;;;;;5071087;28;20089;-65
2021/12/12 11:40:05;;;;;;;17.88;12.25;;;7.80;99.90;;;;;;5088048;28;20044;-65
2021/12/12 11:42:48;;;;;;;17.45;11.85;;;7.80;99.90;;;;;;5053701;28;20508;-65
2021/12/12 11:45:25;;;;;;;18.83;13.75;;;7.70;99.90;;;;;;5070251;28;20045;-65
2021/12/12 11:48:13;;;;;;;19.75;13.20;;;7.80;99.90;;;;;;5069981;28;20085;-65
2021/12/12 11:51:01;;;;;;;20.27;13.48;;;7.80;99.90;;;;;;5068661;28;20335;-64
2021/12/12 11:53:39;;;;;;;18.88;12.75;;;7.80;99.90;;;;;;5080435;28;20061;-65
2021/12/12 11:56:23;;;;;;;18.88;12.77;;;7.90;99.90;;;;;;5065729;28;20469;-65
2021/12/12 11:59:02;;;;;;;20.70;13.88;;;7.90;99.90;;;;;;5075489;28;20111;-65
2021/12/12 12:01:45;;;;;;;21.00;13.65;;;7.90;99.90;;;;;;5069087;28;20039;-65
2021/12/12 12:04:23;;;;;;;22.55;13.70;;;7.90;99.90;;;;;;5056861;28;20044;-65
2021/12/12 12:07:07;;;;;;;20.30;13.25;;;8.00;99.90;;;;;;5070343;28;20036;-65
2021/12/12 12:09:55;;;;;;;18.52;13.63;;;8.00;99.90;;;;;;5071579;28;20040;-65
2021/12/12 12:12:23;;;;;;;22.38;14.05;;;8.00;99.90;;;;;;5076322;28;20036;-65
2021/12/12 12:15:17;;;;;;;21.60;14.05;;;8.00;99.90;;;;;;5053941;28;20607;-65
2021/12/12 12:17:49;;;;;;;27.52;15.32;;;8.00;99.90;;;;;;5069710;28;20160;-65
2021/12/12 12:20:39;;;;;;;24.90;16.15;;;8.00;99.90;;;;;;5068557;28;20072;-65
2021/12/12 12:23:20;;;;;;;28.38;17.33;;;8.10;99.90;;;;;;5068086;28;20086;-65
2021/12/12 12:28:58;;;;;;;30.63;17.55;;;8.10;99.90;;;;;;5062609;28;20127;-65
2021/12/12 12:31:33;;;;;;;28.83;17.58;;;8.10;99.90;;;;;;5075132;28;20497;-65
2021/12/12 12:34:17;;;;;;;30.73;17.85;;;8.10;99.90;;;;;;5063280;28;20040;-65
2021/12/12 12:37:24;;;;;;;28.77;17.27;;;8.10;99.90;;;;;;5070079;28;20052;-65
2021/12/12 12:40:18;;;;;;;30.25;18.45;;;8.10;99.90;;;;;;5061377;28;20040;-65
2021/12/12 12:43:05;;;;;;;36.33;18.85;;;8.10;99.90;;;;;;5089093;28;20043;-63
2021/12/12 12:46:08;;;;;;;33.67;18.55;;;8.10;99.90;;;;;;5087841;28;20036;-64
2021/12/12 12:48:45;;;;;;;34.78;20.27;;;8.20;99.90;;;;;;5089261;28;20119;-59
2021/12/12 12:51:27;;;;;;;31.77;18.60;;;8.20;99.90;;;;;;5087804;28;20043;-59
2021/12/12 12:54:11;;;;;;;42.03;21.55;;;8.20;99.90;;;;;;5089589;28;20254;-59
2021/12/12 12:57:10;;;;;;;35.30;20.25;;;8.20;99.90;;;;;;5073386;28;20090;-58
2021/12/12 12:59:54;;;;;;;36.22;19.63;;;8.30;99.90;;;;;;5070054;28;20048;-60
2021/12/12 13:02:21;;;;;;;33.05;19.10;;;8.30;99.90;;;;;;5069363;28;20493;-60
2021/12/12 13:05:21;;;;;;;34.33;20.20;;;8.30;99.90;;;;;;5069291;28;20045;-60
2021/12/12 13:08:21;;;;;;;40.25;20.05;;;8.30;99.90;;;;;;5043006;28;20052;-60
2021/12/12 13:10:48;;;;;;;43.25;22.13;;;8.30;99.90;;;;;;5069648;28;20041;-60
2021/12/12 13:13:19;;;;;;;43.15;20.00;;;8.40;99.90;;;;;;5056289;28;20045;-59
2021/12/12 13:16:17;;;;;;;42.83;21.08;;;8.40;99.90;;;;;;5070403;28;20122;-60
2021/12/12 13:18:59;;;;;;;43.38;23.10;;;8.40;99.90;;;;;;5027708;28;20415;-62
2021/12/12 13:21:42;;;;;;;40.90;22.35;;;8.40;99.90;;;;;;5060135;28;20032;-61
2021/12/12 13:24:27;;;;;;;43.45;22.13;;;8.50;99.90;;;;;;5068834;28;20194;-60
2021/12/12 13:27:13;;;;;;;50.97;23.55;;;8.50;99.90;;;;;;5049732;28;20091;-60
2021/12/12 13:29:56;;;;;;;43.42;23.48;;;8.50;99.90;;;;;;5054882;28;20045;-60
2021/12/12 13:32:35;;;;;;;39.58;20.27;;;8.60;99.90;;;;;;5076560;28;20031;-60
2021/12/12 13:35:05;;;;;;;40.65;20.90;;;8.60;99.90;;;;;;5081303;28;20036;-60